createdAt,value
2022-09-01T16:06:28.132Z,1.10
2022-09-01T16:08:54.900Z,0.90
2022-09-01T16:11:25.870Z,1.00
2022-09-01T16:13:53.603Z,1.00
2022-09-01T16:16:46.218Z,1.10
2022-09-01T16:19:28.275Z,1.10
2022-09-01T16:22:20.820Z,0.90
2022-09-01T16:24:53.687Z,1.10
2022-09-01T16:27:25.991Z,1.10
2022-09-01T16:30:00.514Z,1.10
2022-09-01T16:32:36.084Z,1.00
2022-09-01T16:35:09.251Z,1.08
2022-09-01T16:37:59.079Z,1.00
2022-09-01T16:40:46.127Z,1.10
2022-09-01T16:43:29.583Z,0.90
2022-09-01T16:46:22.077Z,1.00
2022-09-01T16:52:33.060Z,0.82
2022-09-01T16:55:39.112Z,0.80
2022-09-01T16:58:25.376Z,1.75
2022-09-01T17:01:26.552Z,0.95
2022-09-01T17:04:05.778Z,1.00
2022-09-01T17:07:03.036Z,1.00
2022-09-01T17:09:49.105Z,1.00
2022-09-01T17:12:50.674Z,1.08
2022-09-01T17:18:23.424Z,1.00
2022-09-01T17:21:03.841Z,0.93
2022-09-01T17:23:36.487Z,1.00
2022-09-01T17:26:20.672Z,0.90
2022-09-01T17:29:03.007Z,0.90
2022-09-01T17:31:52.651Z,0.95
2022-09-01T17:34:41.993Z,1.00
2022-09-01T17:40:49.286Z,0.93
2022-09-01T17:43:47.192Z,0.90
2022-09-01T17:46:38.580Z,0.90
2022-09-01T17:49:10.145Z,0.95
2022-09-01T17:52:07.411Z,1.05
2022-09-01T17:55:04.574Z,1.05
2022-09-01T17:57:57.629Z,0.93
2022-09-01T18:00:41.061Z,1.00
2022-09-01T18:04:00.945Z,1.10
2022-09-01T18:06:41.716Z,1.00
2022-09-01T18:09:12.325Z,0.98
2022-09-01T18:12:27.825Z,1.15
2022-09-01T18:15:12.988Z,1.20
2022-09-01T18:17:47.314Z,1.10
2022-09-01T18:20:28.792Z,1.15
2022-09-01T18:23:09.462Z,1.00
2022-09-01T18:26:06.699Z,1.00
2022-09-01T18:28:41.776Z,1.15
2022-09-01T18:31:48.297Z,1.10
2022-09-01T18:34:30.014Z,1.20
2022-09-01T18:37:13.454Z,1.00
2022-09-01T18:40:12.121Z,1.20
2022-09-01T18:43:04.859Z,1.00
2022-09-01T18:46:00.181Z,0.90
2022-09-01T18:48:50.721Z,1.02
2022-09-01T18:51:49.901Z,1.00
2022-09-01T18:54:36.171Z,1.27
2022-09-01T18:57:12.991Z,1.27
2022-09-01T18:59:52.433Z,1.10
2022-09-01T19:03:01.321Z,1.30
2022-09-01T19:05:53.671Z,1.23
2022-09-01T19:08:29.116Z,1.20
2022-09-01T19:11:15.290Z,1.27
2022-09-01T19:14:17.199Z,1.00
2022-09-01T19:17:11.410Z,1.10
2022-09-01T19:19:59.014Z,1.00
2022-09-01T19:23:38.431Z,1.38
2022-09-01T19:26:09.578Z,1.30
2022-09-01T19:28:57.794Z,1.40
2022-09-01T19:31:38.664Z,1.20
2022-09-01T19:34:12.806Z,1.40
2022-09-01T19:36:53.040Z,1.42
2022-09-01T19:39:31.653Z,1.25
2022-09-01T19:42:21.773Z,1.35
2022-09-01T19:45:12.769Z,1.52
2022-09-01T19:47:58.846Z,1.42
2022-09-01T19:50:42.783Z,1.20
2022-09-01T19:53:21.115Z,1.40
2022-09-01T19:55:58.090Z,1.05
2022-09-01T19:58:50.624Z,1.10
2022-09-01T20:02:06.374Z,1.20
2022-09-01T20:04:44.845Z,1.20
2022-09-01T20:07:50.073Z,1.30
2022-09-01T20:10:30.642Z,1.35
2022-09-01T20:13:14.847Z,1.45
2022-09-01T20:16:08.608Z,1.38
2022-09-01T20:18:46.756Z,1.42
2022-09-01T20:21:20.863Z,1.50
2022-09-01T20:24:11.711Z,1.50
2022-09-01T20:26:58.297Z,1.52
2022-09-01T20:29:37.303Z,1.30
2022-09-01T20:32:09.281Z,1.63
2022-09-01T20:34:47.196Z,1.80
2022-09-01T20:37:25.806Z,1.60
2022-09-01T20:40:09.862Z,1.60
2022-09-01T20:43:05.650Z,1.45
2022-09-01T20:45:36.482Z,1.60
2022-09-01T20:48:08.652Z,1.40
2022-09-01T20:51:21.591Z,1.48
2022-09-01T20:54:13.661Z,1.60
2022-09-01T20:56:57.599Z,1.65
2022-09-01T21:00:01.788Z,1.85
2022-09-01T21:03:05.155Z,1.73
2022-09-01T21:05:59.571Z,1.55
2022-09-01T21:08:49.669Z,1.27
2022-09-01T21:11:46.102Z,1.50
2022-09-01T21:14:29.580Z,1.40
2022-09-01T21:17:13.660Z,1.50
2022-09-01T21:19:52.474Z,1.50
2022-09-01T21:22:25.568Z,1.50
2022-09-01T21:24:58.472Z,1.70
2022-09-01T21:27:31.276Z,1.40
2022-09-01T21:30:04.966Z,1.50
2022-09-01T21:32:38.962Z,1.40
2022-09-01T21:35:10.829Z,1.70
2022-09-01T21:37:41.325Z,1.70
2022-09-01T21:40:11.741Z,1.73
2022-09-01T21:42:56.518Z,1.60
2022-09-01T21:45:26.944Z,1.70
2022-09-01T21:47:56.757Z,1.40
2022-09-01T21:50:28.721Z,1.40
2022-09-01T21:53:00.580Z,1.42
2022-09-01T21:55:29.981Z,1.38
2022-09-01T21:58:08.208Z,1.52
2022-09-01T22:00:44.753Z,1.50
2022-09-01T22:03:14.597Z,1.40
2022-09-01T22:05:47.701Z,1.38
2022-09-01T22:08:19.740Z,1.60
2022-09-01T22:10:54.162Z,1.40
2022-09-01T22:13:27.660Z,1.40
2022-09-01T22:16:02.017Z,1.60
2022-09-01T22:18:35.101Z,1.70
2022-09-01T22:21:12.355Z,1.63
2022-09-01T22:23:54.370Z,1.50
2022-09-01T22:26:41.753Z,1.55
2022-09-01T22:29:20.484Z,1.20
2022-09-01T22:35:11.517Z,1.70
2022-09-01T22:37:45.014Z,1.40
2022-09-01T22:40:24.333Z,1.40
2022-09-01T22:43:00.541Z,1.50
2022-09-01T22:45:37.768Z,1.60
2022-09-01T22:59:56.794Z,1.20
2022-09-01T23:02:38.501Z,1.40
2022-09-01T23:05:16.959Z,1.23
2022-09-01T23:13:41.056Z,1.43
2022-09-01T23:16:18.505Z,1.10
2022-09-01T23:24:36.687Z,1.20
2022-09-01T23:27:10.630Z,1.00
2022-09-01T23:29:49.055Z,1.10
2022-09-01T23:32:26.231Z,1.02
2022-09-01T23:35:04.932Z,0.97
2022-09-01T23:37:52.453Z,0.90
2022-09-01T23:40:33.503Z,1.20
2022-09-01T23:43:16.271Z,0.90
2022-09-01T23:46:31.733Z,1.40
2022-09-01T23:49:06.310Z,1.00
2022-09-01T23:55:00.484Z,1.10
2022-09-01T23:57:47.751Z,1.30
